Time;durP1;ratioP1;P1;durP2;ratioP2;P2;SDS_P1;SDS_P2;PMS_P1;PMS_P2;Temp;Humidity;BMP_temperature;BMP_pressure;BME280_temperature;BME280_humidity;BME280_pressure;Samples;Min_cycle;Max_cycle;Signal;HPM_P1;HPM_P2
2023/12/07 00:01:14;;;;;;;19.90;13.10;;;2.10;99.90;;;;;;4995995;28;20165;-47
2023/12/07 00:03:40;;;;;;;19.10;12.43;;;2.10;99.90;;;;;;4992938;28;20517;-47
2023/12/07 00:06:06;;;;;;;16.40;12.80;;;2.10;99.90;;;;;;4967418;28;20128;-46
2023/12/07 00:08:31;;;;;;;20.92;13.02;;;2.10;99.90;;;;;;4974701;28;20073;-46
2023/12/07 00:10:57;;;;;;;16.65;12.40;;;2.10;99.90;;;;;;4978246;28;20449;-45
2023/12/07 00:13:23;;;;;;;17.42;12.52;;;2.10;99.90;;;;;;4995360;28;20042;-47
2023/12/07 00:15:49;;;;;;;19.80;12.32;;;2.10;99.90;;;;;;4991977;28;20037;-49
2023/12/07 00:18:14;;;;;;;18.98;12.40;;;2.10;99.90;;;;;;4985982;28;20576;-47
2023/12/07 00:20:40;;;;;;;17.38;12.52;;;2.10;99.90;;;;;;4989304;28;20048;-46
2023/12/07 00:23:06;;;;;;;18.05;13.05;;;2.10;99.90;;;;;;4989097;28;20046;-45
2023/12/07 00:25:31;;;;;;;18.08;12.65;;;2.10;99.90;;;;;;4989499;28;20573;-46
2023/12/07 00:27:57;;;;;;;17.92;12.38;;;2.10;99.90;;;;;;4984306;28;20052;-48
2023/12/07 00:30:23;;;;;;;19.00;12.70;;;2.20;99.90;;;;;;4995878;28;20069;-46
2023/12/07 00:32:49;;;;;;;20.70;13.15;;;2.20;99.90;;;;;;4979593;28;20102;-46
2023/12/07 00:35:16;;;;;;;17.80;12.20;;;2.20;99.90;;;;;;4981315;28;20054;-46
2023/12/07 00:37:41;;;;;;;20.90;12.27;;;2.20;99.90;;;;;;4996286;28;20522;-50
2023/12/07 00:40:08;;;;;;;18.33;12.73;;;2.20;99.90;;;;;;5000595;28;20042;-46
2023/12/07 00:42:36;;;;;;;17.65;11.95;;;2.20;99.90;;;;;;4997228;28;20041;-50
2023/12/07 00:45:02;;;;;;;17.23;12.35;;;2.20;99.90;;;;;;4999174;28;20100;-45
2023/12/07 00:47:28;;;;;;;15.95;11.90;;;2.20;99.90;;;;;;4992570;28;20033;-47
2023/12/07 00:49:53;;;;;;;18.00;12.23;;;2.20;99.90;;;;;;4994010;28;20064;-46
2023/12/07 00:52:19;;;;;;;16.38;11.60;;;2.20;99.90;;;;;;4996920;28;20150;-46
2023/12/07 00:54:45;;;;;;;16.83;12.35;;;2.20;99.90;;;;;;4991253;28;20038;-48
2023/12/07 00:57:10;;;;;;;16.25;11.77;;;2.20;99.90;;;;;;4989861;28;20042;-49
2023/12/07 00:59:37;;;;;;;18.95;12.27;;;2.30;99.90;;;;;;4984672;28;20089;-49
2023/12/07 01:02:06;;;;;;;18.40;12.80;;;2.20;99.90;;;;;;4988338;28;22002;-46
2023/12/07 01:04:33;;;;;;;16.63;11.95;;;2.20;99.90;;;;;;4990424;28;20473;-47
2023/12/07 01:06:59;;;;;;;15.63;12.02;;;2.30;99.90;;;;;;4969733;28;20059;-48
2023/12/07 01:09:25;;;;;;;19.65;12.15;;;2.20;99.90;;;;;;4985220;28;20038;-49
2023/12/07 01:11:51;;;;;;;17.45;12.27;;;2.20;99.90;;;;;;4985580;28;20072;-46
2023/12/07 01:14:18;;;;;;;15.63;11.40;;;2.20;99.90;;;;;;4984280;28;20048;-47
2023/12/07 01:16:44;;;;;;;15.95;11.85;;;2.20;99.90;;;;;;4988315;28;20046;-46
2023/12/07 01:19:14;;;;;;;17.10;12.07;;;2.20;99.90;;;;;;4987790;28;20482;-48
2023/12/07 01:21:40;;;;;;;15.95;11.80;;;2.20;99.90;;;;;;4985450;28;20477;-46
2023/12/07 01:24:07;;;;;;;21.27;11.95;;;2.20;99.90;;;;;;4984405;28;20053;-47
2023/12/07 01:26:33;;;;;;;17.58;12.13;;;2.20;99.90;;;;;;4986057;28;20053;-45
2023/12/07 01:28:58;;;;;;;16.52;12.48;;;2.20;99.90;;;;;;4983758;28;20042;-48
2023/12/07 01:31:24;;;;;;;18.58;11.73;;;2.20;99.90;;;;;;4989341;28;20609;-46
2023/12/07 01:33:50;;;;;;;15.95;11.30;;;2.20;99.90;;;;;;4972601;28;20116;-46
2023/12/07 01:36:15;;;;;;;17.38;12.30;;;2.20;99.90;;;;;;4993084;28;20046;-47
2023/12/07 01:38:43;;;;;;;18.88;12.05;;;2.20;99.90;;;;;;4991360;28;20046;-46
2023/12/07 01:41:09;;;;;;;17.02;10.77;;;2.20;99.90;;;;;;4995659;28;20385;-47
2023/12/07 01:43:34;;;;;;;15.75;11.35;;;2.20;99.90;;;;;;4990229;28;20070;-47
2023/12/07 01:46:00;;;;;;;17.15;11.48;;;2.20;99.90;;;;;;4983496;28;20418;-45
2023/12/07 01:48:28;;;;;;;15.85;11.38;;;2.20;99.90;;;;;;4992791;28;20088;-47
2023/12/07 01:50:56;;;;;;;15.95;11.18;;;2.10;99.90;;;;;;4990610;28;20107;-48
2023/12/07 01:53:24;;;;;;;17.33;11.57;;;2.20;99.90;;;;;;4988501;28;20292;-46
2023/12/07 01:55:51;;;;;;;15.40;10.95;;;2.20;99.90;;;;;;4988501;28;20474;-46
2023/12/07 01:58:19;;;;;;;15.93;11.98;;;2.10;99.90;;;;;;4993652;28;20049;-47
2023/12/07 02:00:46;;;;;;;16.58;11.02;;;2.20;99.90;;;;;;4981613;28;21907;-47
2023/12/07 02:03:13;;;;;;;16.60;11.43;;;2.10;99.90;;;;;;4981503;28;20060;-45
2023/12/07 02:05:43;;;;;;;16.98;11.48;;;2.10;99.90;;;;;;4980703;28;20531;-46
2023/12/07 02:08:08;;;;;;;18.90;11.48;;;2.10;99.90;;;;;;4985390;28;20555;-46
2023/12/07 02:10:35;;;;;;;16.80;11.27;;;2.10;99.90;;;;;;4988449;28;20042;-46
2023/12/07 02:13:01;;;;;;;17.60;11.05;;;2.10;99.90;;;;;;4981579;28;20052;-46
2023/12/07 02:15:27;;;;;;;13.77;10.48;;;2.10;99.90;;;;;;4984924;28;20065;-46
2023/12/07 02:18:12;;;;;;;18.90;11.50;;;2.10;99.90;;;;;;4978684;28;20054;-48
2023/12/07 02:20:48;;;;;;;15.05;10.90;;;2.10;99.90;;;;;;4985445;28;20045;-50
2023/12/07 02:23:17;;;;;;;14.75;11.15;;;2.10;99.90;;;;;;4983795;28;20439;-48
2023/12/07 02:25:53;;;;;;;15.15;11.38;;;2.10;99.90;;;;;;4985977;28;20049;-46
2023/12/07 02:28:19;;;;;;;14.52;11.07;;;2.10;99.90;;;;;;4985946;28;20050;-47
2023/12/07 02:30:45;;;;;;;15.50;11.48;;;2.10;99.90;;;;;;4984164;28;20041;-46
2023/12/07 02:33:11;;;;;;;21.95;11.57;;;2.10;99.90;;;;;;4986166;28;20113;-47
2023/12/07 02:35:38;;;;;;;17.33;11.18;;;2.10;99.90;;;;;;4989530;28;20045;-48
2023/12/07 02:38:06;;;;;;;16.65;11.23;;;2.10;99.90;;;;;;4990140;28;20062;-47
2023/12/07 02:40:33;;;;;;;15.80;11.57;;;2.10;99.90;;;;;;4994616;28;20049;-46
2023/12/07 02:43:00;;;;;;;21.75;11.30;;;2.10;99.90;;;;;;4986926;28;20052;-47
2023/12/07 02:45:26;;;;;;;16.98;11.52;;;2.10;99.90;;;;;;4992706;28;20506;-48
2023/12/07 02:47:53;;;;;;;15.88;10.98;;;2.10;99.90;;;;;;4985667;28;20074;-45
2023/12/07 02:50:19;;;;;;;17.13;10.75;;;2.00;99.90;;;;;;4989832;28;20041;-46
2023/12/07 02:52:45;;;;;;;16.27;10.63;;;2.10;99.90;;;;;;4986307;28;20735;-48
2023/12/07 02:55:11;;;;;;;18.58;10.52;;;2.10;99.90;;;;;;4968780;28;20125;-46
2023/12/07 02:57:37;;;;;;;14.77;10.32;;;2.10;99.90;;;;;;4985542;28;20118;-50
2023/12/07 03:00:07;;;;;;;18.10;10.32;;;2.10;99.90;;;;;;4984088;28;20038;-47
2023/12/07 03:02:37;;;;;;;17.90;10.73;;;2.10;99.90;;;;;;4983389;28;20053;-46
2023/12/07 03:05:03;;;;;;;16.02;10.73;;;2.10;99.90;;;;;;4985799;28;20105;-49
2023/12/07 03:07:29;;;;;;;14.38;10.25;;;2.10;99.90;;;;;;4987613;28;20042;-47
2023/12/07 03:09:55;;;;;;;15.73;10.95;;;2.10;99.90;;;;;;4986363;28;20497;-48
2023/12/07 03:12:20;;;;;;;14.50;10.27;;;2.10;99.90;;;;;;4986621;28;20040;-48
2023/12/07 03:14:46;;;;;;;16.85;10.25;;;2.00;99.90;;;;;;4982671;28;20806;-48
2023/12/07 03:17:12;;;;;;;19.90;10.52;;;2.10;99.90;;;;;;4982586;28;20038;-47
2023/12/07 03:19:40;;;;;;;16.75;10.38;;;2.00;99.90;;;;;;4984714;28;20041;-49
2023/12/07 03:22:08;;;;;;;16.20;10.35;;;2.10;99.90;;;;;;4981732;28;20049;-46
2023/12/07 03:24:38;;;;;;;17.13;9.98;;;2.00;99.90;;;;;;4984853;28;20120;-47
2023/12/07 03:27:04;;;;;;;19.08;10.27;;;2.00;99.90;;;;;;4982573;28;20038;-47
2023/12/07 03:29:31;;;;;;;16.35;10.20;;;2.00;99.90;;;;;;4984558;28;20104;-47
2023/12/07 03:31:56;;;;;;;14.27;10.07;;;2.00;99.90;;;;;;4985462;28;20484;-46
2023/12/07 03:34:22;;;;;;;13.93;9.98;;;2.00;99.90;;;;;;4968622;28;20058;-50
2023/12/07 03:36:48;;;;;;;15.00;10.32;;;2.00;99.90;;;;;;4985132;28;20104;-49
2023/12/07 03:39:15;;;;;;;13.63;10.20;;;2.00;99.90;;;;;;4983643;28;20096;-46
2023/12/07 03:41:41;;;;;;;13.20;10.18;;;2.00;99.90;;;;;;4970690;28;20509;-49
2023/12/07 03:44:07;;;;;;;13.57;9.60;;;1.90;99.90;;;;;;4993858;28;20050;-46
2023/12/07 03:46:33;;;;;;;14.95;10.30;;;1.90;99.90;;;;;;4990133;28;20042;-45
2023/12/07 03:48:59;;;;;;;13.63;10.40;;;1.90;99.90;;;;;;4988643;28;20050;-48
2023/12/07 03:51:27;;;;;;;15.68;10.55;;;1.90;99.90;;;;;;4988623;28;20046;-47
2023/12/07 03:53:54;;;;;;;14.55;9.93;;;1.90;99.90;;;;;;4990086;28;20045;-47
2023/12/07 03:56:28;;;;;;;15.57;10.40;;;1.90;99.90;;;;;;4992285;28;20398;-47
2023/12/07 03:58:54;;;;;;;17.67;10.32;;;1.90;99.90;;;;;;4990501;28;20042;-48
2023/12/07 04:01:28;;;;;;;17.50;9.68;;;1.90;99.90;;;;;;4988781;28;20060;-45
2023/12/07 04:03:55;;;;;;;12.38;9.57;;;1.90;99.90;;;;;;4987188;28;20061;-45
2023/12/07 04:06:22;;;;;;;14.32;9.95;;;1.90;99.90;;;;;;4985286;28;20046;-46
2023/12/07 04:08:48;;;;;;;14.70;9.95;;;1.80;99.90;;;;;;4989279;28;20125;-47
2023/12/07 04:11:15;;;;;;;13.65;9.35;;;1.80;99.90;;;;;;4987517;28;20042;-46
2023/12/07 04:13:42;;;;;;;17.05;10.48;;;1.80;99.90;;;;;;4987033;28;20052;-45
2023/12/07 04:16:11;;;;;;;14.70;9.70;;;1.80;99.90;;;;;;4982045;28;20052;-45
2023/12/07 04:18:37;;;;;;;15.50;10.05;;;1.80;99.90;;;;;;4987317;28;20041;-48
2023/12/07 04:21:03;;;;;;;15.05;10.18;;;1.80;99.90;;;;;;4986987;28;20528;-49
2023/12/07 04:23:29;;;;;;;15.30;9.48;;;1.90;99.90;;;;;;4983097;28;20099;-47
2023/12/07 04:25:55;;;;;;;15.18;9.35;;;1.90;99.90;;;;;;4984999;28;20096;-47
2023/12/07 04:28:20;;;;;;;15.52;9.70;;;1.90;99.90;;;;;;4983292;28;20514;-45
2023/12/07 04:30:46;;;;;;;14.02;9.10;;;1.80;99.90;;;;;;4983642;28;20092;-45
2023/12/07 04:33:12;;;;;;;13.68;9.25;;;1.90;99.90;;;;;;4983614;28;20096;-49
2023/12/07 04:35:37;;;;;;;11.57;8.63;;;1.90;99.90;;;;;;4989771;28;20422;-48
2023/12/07 04:38:03;;;;;;;12.32;8.13;;;1.90;99.90;;;;;;4986732;28;20076;-49
2023/12/07 04:40:29;;;;;;;13.35;9.00;;;1.90;99.90;;;;;;4987442;28;20414;-48
2023/12/07 04:42:55;;;;;;;14.80;9.25;;;1.90;99.90;;;;;;4982316;28;20073;-47
2023/12/07 04:45:20;;;;;;;13.02;9.05;;;1.90;99.90;;;;;;4979027;28;20045;-46
2023/12/07 04:47:46;;;;;;;14.48;8.63;;;1.90;99.90;;;;;;4983857;28;20104;-47
2023/12/07 04:50:12;;;;;;;11.43;8.45;;;1.90;99.90;;;;;;4989063;28;20526;-48
2023/12/07 04:52:38;;;;;;;12.57;8.65;;;1.90;99.90;;;;;;4988554;28;20069;-47
2023/12/07 04:55:06;;;;;;;11.80;8.45;;;1.90;99.90;;;;;;4987306;28;20129;-49
2023/12/07 04:57:33;;;;;;;11.55;8.88;;;1.90;99.90;;;;;;4989426;28;20046;-46
2023/12/07 04:59:59;;;;;;;11.60;8.82;;;1.90;99.90;;;;;;4995165;28;20402;-48
2023/12/07 05:02:25;;;;;;;12.70;9.02;;;1.90;99.90;;;;;;4988646;28;20041;-47
2023/12/07 05:04:51;;;;;;;14.90;9.40;;;1.90;99.90;;;;;;4998143;28;20050;-45
2023/12/07 05:07:17;;;;;;;13.68;9.20;;;1.90;99.90;;;;;;4992414;28;20445;-47
2023/12/07 05:09:42;;;;;;;12.88;9.38;;;1.90;99.90;;;;;;4992384;28;20045;-46
2023/12/07 05:12:08;;;;;;;13.80;9.63;;;1.90;99.90;;;;;;4980110;28;20077;-46
2023/12/07 05:14:37;;;;;;;14.88;10.48;;;2.00;99.90;;;;;;4994508;28;20038;-45
2023/12/07 05:17:03;;;;;;;15.15;9.98;;;1.90;99.90;;;;;;4994740;28;20077;-46
2023/12/07 05:19:29;;;;;;;16.13;10.10;;;1.90;99.90;;;;;;4976632;28;20038;-47
2023/12/07 05:21:55;;;;;;;14.98;9.98;;;2.00;99.90;;;;;;4990717;28;20056;-46
2023/12/07 05:24:20;;;;;;;19.50;10.38;;;1.90;99.90;;;;;;4991469;28;20088;-46
2023/12/07 05:26:46;;;;;;;15.00;9.48;;;1.90;99.90;;;;;;4994855;28;20513;-46
2023/12/07 05:29:13;;;;;;;15.35;10.70;;;1.90;99.90;;;;;;4980582;28;20056;-45
2023/12/07 05:31:39;;;;;;;15.65;10.73;;;1.90;99.90;;;;;;4991565;28;20135;-48
2023/12/07 05:34:06;;;;;;;14.50;10.02;;;1.90;99.90;;;;;;4982515;28;20506;-47
2023/12/07 05:36:31;;;;;;;15.73;10.13;;;1.90;99.90;;;;;;4988269;28;20474;-47
2023/12/07 05:38:57;;;;;;;22.33;11.60;;;1.90;99.90;;;;;;4990522;28;20042;-46
2023/12/07 05:41:23;;;;;;;15.43;10.40;;;1.90;99.90;;;;;;4990220;28;20053;-47
2023/12/07 05:43:49;;;;;;;18.25;10.70;;;1.90;99.90;;;;;;4973071;28;20052;-46
2023/12/07 05:46:18;;;;;;;17.42;13.18;;;1.90;99.90;;;;;;4983863;28;20045;-46
2023/12/07 05:48:43;;;;;;;21.10;12.90;;;1.90;99.90;;;;;;4987147;28;20584;-46
2023/12/07 05:51:20;;;;;;;19.33;12.30;;;1.90;99.90;;;;;;4989472;28;20034;-48
2023/12/07 05:53:46;;;;;;;16.70;10.98;;;1.90;99.90;;;;;;4988908;28;20047;-48
2023/12/07 05:56:11;;;;;;;16.30;11.48;;;1.90;99.90;;;;;;4990564;28;20061;-48
2023/12/07 05:58:37;;;;;;;20.02;11.75;;;1.90;99.90;;;;;;4989456;28;20116;-47
2023/12/07 06:01:03;;;;;;;17.13;12.18;;;1.90;99.90;;;;;;4986744;28;20054;-48
2023/12/07 06:03:29;;;;;;;17.45;11.43;;;1.90;99.90;;;;;;4988179;28;20041;-47
2023/12/07 06:05:55;;;;;;;16.70;11.60;;;1.90;99.90;;;;;;4989910;28;20045;-46
2023/12/07 06:08:22;;;;;;;18.25;11.65;;;1.90;99.90;;;;;;4989803;28;20073;-48
2023/12/07 06:10:48;;;;;;;17.48;11.38;;;1.90;99.90;;;;;;4986343;28;20132;-48
2023/12/07 06:13:14;;;;;;;18.17;11.63;;;1.90;99.90;;;;;;4982955;28;20527;-47
2023/12/07 06:15:40;;;;;;;19.55;13.27;;;1.90;99.90;;;;;;4985415;28;20115;-47
2023/12/07 06:18:06;;;;;;;19.98;12.38;;;1.90;99.90;;;;;;4984939;28;20499;-48
2023/12/07 06:20:33;;;;;;;17.35;12.05;;;1.90;99.90;;;;;;4986191;28;20490;-48
2023/12/07 06:22:59;;;;;;;19.17;12.57;;;1.90;99.90;;;;;;4992604;28;20087;-46
2023/12/07 06:25:25;;;;;;;19.05;12.77;;;1.80;99.90;;;;;;4991977;28;20482;-50
2023/12/07 06:27:51;;;;;;;19.63;12.50;;;1.80;99.90;;;;;;4992248;28;20387;-47
2023/12/07 06:30:17;;;;;;;21.10;13.18;;;1.90;99.90;;;;;;4961922;28;20810;-49
2023/12/07 06:32:44;;;;;;;17.73;11.77;;;1.80;99.90;;;;;;4986239;28;20058;-45
2023/12/07 06:35:12;;;;;;;19.63;12.20;;;1.80;99.90;;;;;;4977805;28;20042;-48
2023/12/07 06:37:39;;;;;;;19.38;12.48;;;1.90;99.90;;;;;;4986003;28;20041;-48
2023/12/07 06:40:08;;;;;;;19.58;12.43;;;1.90;99.90;;;;;;4977061;28;20061;-45
2023/12/07 06:42:35;;;;;;;18.67;12.65;;;1.90;99.90;;;;;;4985902;28;20077;-45
2023/12/07 06:45:02;;;;;;;20.67;11.93;;;1.90;99.90;;;;;;4990606;28;20463;-47
2023/12/07 06:47:27;;;;;;;18.48;12.10;;;1.80;99.90;;;;;;4991375;28;20142;-46
2023/12/07 06:49:53;;;;;;;20.55;11.70;;;1.90;99.90;;;;;;4985981;28;20042;-45
2023/12/07 06:52:19;;;;;;;19.15;11.98;;;1.90;99.90;;;;;;4985299;28;20045;-46
2023/12/07 06:54:45;;;;;;;18.80;12.30;;;1.90;99.90;;;;;;4987327;28;20042;-45
2023/12/07 06:57:11;;;;;;;20.60;13.55;;;1.90;99.90;;;;;;4983744;28;20038;-45
2023/12/07 06:59:36;;;;;;;18.85;13.57;;;1.90;99.90;;;;;;4986918;28;20064;-47
2023/12/07 07:02:02;;;;;;;21.83;13.63;;;1.90;99.90;;;;;;4967009;28;20058;-47
2023/12/07 07:04:29;;;;;;;20.30;13.23;;;1.90;99.90;;;;;;4984472;28;20113;-45
2023/12/07 07:06:55;;;;;;;23.08;15.07;;;1.90;99.90;;;;;;4985850;28;20045;-47
2023/12/07 07:09:21;;;;;;;22.33;14.88;;;1.90;99.90;;;;;;4984903;28;20112;-48
2023/12/07 07:11:50;;;;;;;21.35;14.23;;;1.90;99.90;;;;;;4982177;28;20462;-46
2023/12/07 07:14:16;;;;;;;23.77;14.98;;;1.90;99.90;;;;;;4984836;28;20042;-48
2023/12/07 07:16:41;;;;;;;19.98;13.75;;;1.90;99.90;;;;;;4979110;28;20540;-47
2023/12/07 07:19:08;;;;;;;23.65;14.38;;;1.90;99.90;;;;;;4981321;28;20053;-48
2023/12/07 07:21:34;;;;;;;19.85;13.82;;;1.90;99.90;;;;;;4982556;28;20039;-45
2023/12/07 07:24:00;;;;;;;22.50;13.55;;;1.90;99.90;;;;;;4982207;28;20358;-49
2023/12/07 07:26:26;;;;;;;18.73;13.25;;;1.90;99.90;;;;;;4983170;28;20453;-45
2023/12/07 07:28:52;;;;;;;25.77;13.55;;;1.90;99.90;;;;;;4984914;28;20052;-46
2023/12/07 07:31:18;;;;;;;20.45;13.60;;;1.90;99.90;;;;;;4986596;28;20050;-46
2023/12/07 07:33:46;;;;;;;21.42;13.52;;;1.90;99.90;;;;;;4987516;28;20128;-46
2023/12/07 07:36:13;;;;;;;20.50;13.30;;;1.90;99.90;;;;;;4987633;28;20065;-46
2023/12/07 07:38:39;;;;;;;20.45;14.13;;;1.90;99.90;;;;;;4975449;28;20050;-46
2023/12/07 07:41:05;;;;;;;20.35;12.75;;;1.90;99.90;;;;;;4984014;28;20462;-46
2023/12/07 07:43:31;;;;;;;18.98;13.10;;;1.90;99.90;;;;;;4986678;28;20107;-45
2023/12/07 07:45:56;;;;;;;21.08;13.57;;;1.90;99.90;;;;;;4982959;28;20039;-44
2023/12/07 07:48:22;;;;;;;21.00;12.98;;;1.90;99.90;;;;;;4984044;28;21325;-44
2023/12/07 07:50:48;;;;;;;22.27;13.18;;;1.90;99.90;;;;;;4983872;28;20046;-48
2023/12/07 07:53:14;;;;;;;25.95;14.45;;;1.90;99.90;;;;;;4985125;28;20510;-44
2023/12/07 07:55:40;;;;;;;20.35;12.75;;;2.00;99.90;;;;;;4981387;28;20406;-45
2023/12/07 07:58:05;;;;;;;20.92;13.57;;;1.90;99.90;;;;;;4965689;28;20054;-49
2023/12/07 08:00:32;;;;;;;18.55;13.52;;;2.00;99.90;;;;;;4985210;28;20054;-47
2023/12/07 08:02:58;;;;;;;20.55;13.73;;;2.00;99.90;;;;;;4993400;28;20499;-45
2023/12/07 08:05:24;;;;;;;23.17;13.77;;;2.00;99.90;;;;;;4995244;28;20061;-46
2023/12/07 08:07:51;;;;;;;19.65;13.60;;;2.00;99.90;;;;;;4986398;28;20503;-45
2023/12/07 08:10:17;;;;;;;23.08;13.93;;;2.00;99.90;;;;;;4990407;28;20040;-45
2023/12/07 08:12:43;;;;;;;21.10;13.63;;;2.00;99.90;;;;;;4989223;28;20044;-45
2023/12/07 08:15:10;;;;;;;20.10;13.65;;;2.10;99.90;;;;;;4991102;28;20128;-46
2023/12/07 08:17:42;;;;;;;23.17;14.60;;;2.10;99.90;;;;;;4988431;28;20037;-46
2023/12/07 08:20:16;;;;;;;21.20;13.77;;;2.10;99.90;;;;;;4973139;28;20168;-44
2023/12/07 08:22:41;;;;;;;23.52;14.50;;;2.10;99.90;;;;;;4988346;28;20348;-46
2023/12/07 08:25:09;;;;;;;22.13;14.48;;;2.10;99.90;;;;;;4990155;28;20200;-45
2023/12/07 08:27:36;;;;;;;23.08;13.85;;;2.10;99.90;;;;;;4989375;28;20060;-47
2023/12/07 08:30:02;;;;;;;27.40;15.20;;;2.10;99.90;;;;;;4990760;28;20473;-45
2023/12/07 08:32:29;;;;;;;22.38;13.93;;;2.20;99.90;;;;;;4993119;28;20062;-46
2023/12/07 08:34:55;;;;;;;20.25;13.38;;;2.20;99.90;;;;;;4989614;28;20498;-44
2023/12/07 08:37:20;;;;;;;22.48;14.43;;;2.30;99.90;;;;;;4991024;28;20045;-45
2023/12/07 08:39:46;;;;;;;23.60;13.88;;;2.20;99.90;;;;;;4988869;28;20085;-45
2023/12/07 08:42:12;;;;;;;21.45;13.70;;;2.20;99.90;;;;;;4988226;28;20069;-47
2023/12/07 08:44:38;;;;;;;23.98;15.00;;;2.20;99.90;;;;;;4989971;28;20559;-45
2023/12/07 08:47:05;;;;;;;24.80;15.88;;;2.20;99.90;;;;;;4984140;28;20042;-45
2023/12/07 08:49:31;;;;;;;22.65;14.93;;;2.30;99.90;;;;;;4983709;28;20125;-44
2023/12/07 08:51:57;;;;;;;28.00;15.98;;;2.30;99.90;;;;;;4985970;28;20046;-47
2023/12/07 08:54:23;;;;;;;27.15;16.77;;;2.20;99.90;;;;;;4983767;28;20487;-45
2023/12/07 08:56:49;;;;;;;24.20;17.02;;;2.20;99.90;;;;;;4990024;28;20096;-45
2023/12/07 08:59:14;;;;;;;26.95;16.52;;;2.20;99.90;;;;;;4984735;28;20669;-45
2023/12/07 09:01:40;;;;;;;27.00;17.17;;;2.20;99.90;;;;;;4983283;28;20042;-44
2023/12/07 09:04:06;;;;;;;26.52;17.48;;;2.20;99.90;;;;;;4982919;28;20458;-44
2023/12/07 09:06:31;;;;;;;29.13;16.98;;;2.30;99.90;;;;;;4966814;28;20064;-44
2023/12/07 09:08:57;;;;;;;26.77;15.70;;;2.30;99.90;;;;;;4984707;28;20046;-45
2023/12/07 09:11:23;;;;;;;25.85;17.02;;;2.30;99.90;;;;;;4981929;28;20465;-44
2023/12/07 09:13:50;;;;;;;30.92;17.90;;;2.40;99.90;;;;;;4983287;28;20697;-45
2023/12/07 09:16:15;;;;;;;29.25;18.27;;;2.30;99.90;;;;;;4982470;28;20042;-47
2023/12/07 09:18:42;;;;;;;31.35;18.52;;;2.40;99.90;;;;;;4982602;28;20049;-46
2023/12/07 09:21:08;;;;;;;32.40;20.73;;;2.40;99.90;;;;;;4973772;28;20046;-47
2023/12/07 09:23:35;;;;;;;33.38;19.83;;;2.40;99.90;;;;;;4987373;28;20042;-45
2023/12/07 09:26:00;;;;;;;36.83;21.17;;;2.40;99.90;;;;;;4986176;28;20179;-44
2023/12/07 09:28:26;;;;;;;33.50;21.02;;;2.40;99.90;;;;;;4986117;28;20631;-45
2023/12/07 09:30:52;;;;;;;32.80;19.60;;;2.40;99.90;;;;;;4985936;28;20049;-46
2023/12/07 09:33:18;;;;;;;34.95;19.63;;;2.50;99.90;;;;;;4983948;28;20073;-48
2023/12/07 09:35:43;;;;;;;32.63;20.25;;;2.50;99.90;;;;;;4986102;28;20712;-45
2023/12/07 09:38:09;;;;;;;31.52;19.60;;;2.50;99.90;;;;;;4968992;28;20082;-48
2023/12/07 09:40:35;;;;;;;31.60;20.42;;;2.50;99.90;;;;;;4986170;28;20048;-44
2023/12/07 09:43:01;;;;;;;33.28;19.83;;;2.60;99.90;;;;;;4986114;28;20046;-45
2023/12/07 09:45:27;;;;;;;33.80;21.08;;;2.60;99.90;;;;;;4987874;28;20049;-45
2023/12/07 09:47:54;;;;;;;35.75;21.95;;;2.60;99.90;;;;;;4988847;28;20439;-44
2023/12/07 09:50:22;;;;;;;35.03;20.38;;;2.70;99.90;;;;;;4986228;28;20038;-44
2023/12/07 09:52:52;;;;;;;30.83;20.08;;;2.70;99.90;;;;;;4987046;28;20041;-44
2023/12/07 09:55:19;;;;;;;31.52;19.73;;;2.80;99.90;;;;;;4987017;28;20043;-45
2023/12/07 09:57:46;;;;;;;32.30;20.13;;;2.80;99.90;;;;;;4975933;28;21066;-45
2023/12/07 10:00:14;;;;;;;37.10;22.58;;;2.90;99.90;;;;;;4975236;28;20140;-46
2023/12/07 10:02:41;;;;;;;34.92;21.85;;;2.90;99.90;;;;;;4983184;28;20487;-46
2023/12/07 10:05:10;;;;;;;32.90;21.30;;;2.90;99.90;;;;;;4986184;28;20093;-44
2023/12/07 10:07:39;;;;;;;34.72;22.38;;;3.10;99.90;;;;;;4972814;28;20048;-45
2023/12/07 10:10:05;;;;;;;35.13;20.83;;;3.20;99.90;;;;;;4983226;28;20034;-44
2023/12/07 10:12:34;;;;;;;35.47;22.52;;;3.30;99.90;;;;;;4986109;28;20049;-45
2023/12/07 10:15:13;;;;;;;34.08;21.77;;;3.40;99.90;;;;;;4986164;28;21257;-45
2023/12/07 10:17:53;;;;;;;35.10;20.77;;;3.50;99.90;;;;;;4983945;28;20042;-46
2023/12/07 10:20:24;;;;;;;32.03;20.70;;;3.60;99.90;;;;;;4986437;28;20050;-45
2023/12/07 10:23:09;;;;;;;35.95;22.48;;;3.60;99.90;;;;;;4985034;28;20368;-46
2023/12/07 10:25:40;;;;;;;33.63;21.23;;;3.70;99.90;;;;;;4986183;28;20403;-46
2023/12/07 10:28:07;;;;;;;35.72;21.63;;;3.80;99.90;;;;;;4987370;28;20046;-45
2023/12/07 10:30:37;;;;;;;32.17;20.83;;;3.90;99.90;;;;;;4987124;28;20046;-45
2023/12/07 10:33:09;;;;;;;31.83;20.85;;;4.00;99.90;;;;;;4985438;28;20201;-45
2023/12/07 10:35:42;;;;;;;;;;;4.10;99.90;;;;;;4985665;28;20235;-46
2023/12/07 10:38:08;;;;;;;28.95;19.30;;;4.20;99.90;;;;;;4986087;28;19961;-46
2023/12/07 10:40:34;;;;;;;29.38;20.15;;;4.20;99.90;;;;;;4986386;28;20120;-46
2023/12/07 10:43:06;;;;;;;28.60;19.45;;;4.20;99.90;;;;;;4984779;28;20038;-44
2023/12/07 10:45:33;;;;;;;29.90;19.30;;;4.20;99.90;;;;;;4985247;28;20720;-48
2023/12/07 10:48:05;;;;;;;29.30;20.38;;;4.30;99.90;;;;;;4984489;28;20399;-44
2023/12/07 10:50:34;;;;;;;26.08;18.55;;;4.40;99.90;;;;;;4983691;28;20065;-44
2023/12/07 10:53:09;;;;;;;26.20;18.70;;;4.40;99.90;;;;;;4982779;28;20050;-44
2023/12/07 10:55:43;;;;;;;28.38;18.52;;;4.60;99.90;;;;;;4985471;28;20406;-44
2023/12/07 10:58:10;;;;;;;25.73;18.65;;;4.70;99.90;;;;;;4986651;28;20048;-45
2023/12/07 11:00:36;;;;;;;29.55;19.20;;;4.80;99.90;;;;;;4988399;28;20507;-47
2023/12/07 11:03:03;;;;;;;28.88;17.63;;;4.90;99.90;;;;;;4985732;28;20318;-45
2023/12/07 11:05:30;;;;;;;28.38;19.00;;;4.90;99.90;;;;;;4984562;28;20037;-47
2023/12/07 11:08:08;;;;;;;25.02;17.67;;;4.90;99.90;;;;;;4984933;28;20050;-45
2023/12/07 11:11:05;;;;;;;27.08;17.23;;;4.90;99.90;;;;;;4986113;28;20560;-45
2023/12/07 11:13:35;;;;;;;27.83;17.67;;;4.90;99.90;;;;;;4974897;28;20054;-44
2023/12/07 11:16:00;;;;;;;24.50;17.30;;;4.90;99.90;;;;;;4986998;28;20515;-45
2023/12/07 11:18:27;;;;;;;27.98;16.90;;;4.80;99.90;;;;;;4966017;28;20466;-44
2023/12/07 11:20:55;;;;;;;21.10;15.88;;;4.80;99.90;;;;;;4984828;28;20046;-49
2023/12/07 11:23:21;;;;;;;26.02;17.23;;;4.70;99.90;;;;;;4985096;28;20486;-45
2023/12/07 11:25:48;;;;;;;28.42;17.50;;;4.60;99.90;;;;;;4985314;28;20038;-46
2023/12/07 11:28:15;;;;;;;26.85;17.20;;;4.60;99.90;;;;;;4989284;28;20561;-45
2023/12/07 11:30:47;;;;;;;27.13;16.45;;;4.60;99.90;;;;;;4989888;28;20042;-48
2023/12/07 11:33:15;;;;;;;27.95;17.52;;;4.50;99.90;;;;;;4987244;28;20117;-43
2023/12/07 11:36:00;;;;;;;26.77;18.65;;;4.50;99.90;;;;;;4982830;28;20149;-44
2023/12/07 11:38:25;;;;;;;28.05;18.25;;;4.40;99.90;;;;;;4987156;28;20058;-45
2023/12/07 11:40:51;;;;;;;28.27;18.20;;;4.40;99.90;;;;;;4985147;28;20058;-44
2023/12/07 11:43:18;;;;;;;30.33;18.98;;;4.50;99.90;;;;;;4967783;28;20186;-45
2023/12/07 11:45:49;;;;;;;31.55;19.50;;;4.50;99.90;;;;;;4986303;28;20423;-46
2023/12/07 11:48:17;;;;;;;28.45;19.75;;;4.50;99.90;;;;;;4981144;28;20077;-44
2023/12/07 11:51:00;;;;;;;27.20;19.55;;;4.50;99.90;;;;;;4983692;28;20042;-44
2023/12/07 11:53:30;;;;;;;27.87;20.20;;;4.40;99.90;;;;;;4981279;28;20038;-45
2023/12/07 11:55:57;;;;;;;31.88;19.30;;;4.40;99.90;;;;;;4986163;28;20045;-45
2023/12/07 11:58:30;;;;;;;29.10;19.23;;;4.30;99.90;;;;;;4984112;28;20125;-45
2023/12/07 12:00:57;;;;;;;26.90;18.17;;;4.30;99.90;;;;;;4983854;28;20528;-45
2023/12/07 12:03:27;;;;;;;31.77;18.20;;;4.30;99.90;;;;;;4983509;28;20157;-45
2023/12/07 12:05:54;;;;;;;30.17;19.55;;;4.30;99.90;;;;;;4964859;28;20128;-46
2023/12/07 12:08:20;;;;;;;26.45;18.13;;;4.30;99.90;;;;;;4979026;28;20050;-45
2023/12/07 12:10:49;;;;;;;26.10;18.30;;;4.30;99.90;;;;;;4982791;28;20091;-46
2023/12/07 12:13:15;;;;;;;29.25;18.42;;;4.30;99.90;;;;;;4983633;28;20403;-44
2023/12/07 12:15:41;;;;;;;29.10;18.48;;;4.30;99.90;;;;;;4969388;28;20523;-46
2023/12/07 12:18:08;;;;;;;29.50;18.10;;;4.40;99.90;;;;;;4982496;28;20120;-45
2023/12/07 12:20:34;;;;;;;27.70;18.23;;;4.40;99.90;;;;;;4972595;28;20046;-44
2023/12/07 12:23:00;;;;;;;29.25;19.02;;;4.40;99.90;;;;;;4983068;28;20112;-45
2023/12/07 12:25:30;;;;;;;28.73;18.63;;;4.40;99.90;;;;;;4981430;28;20439;-44
2023/12/07 12:28:06;;;;;;;24.77;17.52;;;4.40;99.90;;;;;;4967032;28;20078;-45
2023/12/07 12:30:33;;;;;;;28.98;18.60;;;4.30;99.90;;;;;;4986231;28;20050;-45
2023/12/07 12:33:02;;;;;;;23.77;16.77;;;4.30;99.90;;;;;;4983596;28;20085;-45
2023/12/07 12:35:28;;;;;;;25.17;17.77;;;4.30;99.90;;;;;;4985933;28;20050;-45
2023/12/07 12:37:58;;;;;;;27.40;18.83;;;4.30;99.90;;;;;;4984952;28;20129;-45